sensor_id;sensor_type;location;lat;lon;timestamp;temperature;humidity
10644;DHT22;5370;50.132;8.626;2022-11-15T00:00:40;9.70;96.50
10644;DHT22;5370;50.132;8.626;2022-11-15T00:03:06;9.70;96.70
10644;DHT22;5370;50.132;8.626;2022-11-15T00:05:34;9.70;96.80
10644;DHT22;5370;50.132;8.626;2022-11-15T00:08:01;9.70;96.90
10644;DHT22;5370;50.132;8.626;2022-11-15T00:10:26;9.80;97.00
10644;DHT22;5370;50.132;8.626;2022-11-15T00:12:52;9.70;96.90
10644;DHT22;5370;50.132;8.626;2022-11-15T00:15:19;9.70;96.90
10644;DHT22;5370;50.132;8.626;2022-11-15T00:17:44;9.70;96.90
10644;DHT22;5370;50.132;8.626;2022-11-15T00:20:13;9.60;96.90
10644;DHT22;5370;50.132;8.626;2022-11-15T00:22:38;9.50;96.90
10644;DHT22;5370;50.132;8.626;2022-11-15T00:25:04;9.50;97.00
10644;DHT22;5370;50.132;8.626;2022-11-15T00:27:30;9.40;97.10
10644;DHT22;5370;50.132;8.626;2022-11-15T00:29:56;9.40;97.20
10644;DHT22;5370;50.132;8.626;2022-11-15T00:32:21;9.40;97.50
10644;DHT22;5370;50.132;8.626;2022-11-15T00:34:47;9.40;97.70
10644;DHT22;5370;50.132;8.626;2022-11-15T00:37:12;9.30;97.90
10644;DHT22;5370;50.132;8.626;2022-11-15T00:39:38;9.30;98.10
10644;DHT22;5370;50.132;8.626;2022-11-15T00:42:03;9.30;98.20
10644;DHT22;5370;50.132;8.626;2022-11-15T00:44:29;9.30;98.20
10644;DHT22;5370;50.132;8.626;2022-11-15T00:46:54;9.30;98.30
10644;DHT22;5370;50.132;8.626;2022-11-15T00:49:20;9.20;98.40
10644;DHT22;5370;50.132;8.626;2022-11-15T00:51:45;9.20;98.60
10644;DHT22;5370;50.132;8.626;2022-11-15T00:54:11;9.20;98.80
10644;DHT22;5370;50.132;8.626;2022-11-15T00:56:36;9.20;98.90
10644;DHT22;5370;50.132;8.626;2022-11-15T00:59:02;9.20;99.10
10644;DHT22;5370;50.132;8.626;2022-11-15T01:01:28;9.20;99.30
10644;DHT22;5370;50.132;8.626;2022-11-15T01:03:53;9.20;99.40
10644;DHT22;5370;50.132;8.626;2022-11-15T01:06:19;9.20;99.60
10644;DHT22;5370;50.132;8.626;2022-11-15T01:08:44;9.20;99.70
10644;DHT22;5370;50.132;8.626;2022-11-15T01:11:11;9.30;99.90
10644;DHT22;5370;50.132;8.626;2022-11-15T01:13:38;9.30;99.90
10644;DHT22;5370;50.132;8.626;2022-11-15T01:16:09;9.30;99.90
10644;DHT22;5370;50.132;8.626;2022-11-15T01:18:35;9.40;99.90
10644;DHT22;5370;50.132;8.626;2022-11-15T01:21:05;9.40;99.90
10644;DHT22;5370;50.132;8.626;2022-11-15T01:23:30;9.40;99.90
10644;DHT22;5370;50.132;8.626;2022-11-15T01:26:00;9.40;99.90
10644;DHT22;5370;50.132;8.626;2022-11-15T01:28:30;9.40;99.90
10644;DHT22;5370;50.132;8.626;2022-11-15T01:30:58;9.40;99.80
10644;DHT22;5370;50.132;8.626;2022-11-15T01:33:24;9.30;99.70
10644;DHT22;5370;50.132;8.626;2022-11-15T01:35:49;9.30;99.60
10644;DHT22;5370;50.132;8.626;2022-11-15T01:38:15;9.20;99.50
10644;DHT22;5370;50.132;8.626;2022-11-15T01:40:40;9.20;99.60
10644;DHT22;5370;50.132;8.626;2022-11-15T01:43:29;9.10;99.70
10644;DHT22;5370;50.132;8.626;2022-11-15T01:46:14;9.10;99.90
10644;DHT22;5370;50.132;8.626;2022-11-15T01:48:44;9.10;99.90
10644;DHT22;5370;50.132;8.626;2022-11-15T01:51:12;9.10;99.90
10644;DHT22;5370;50.132;8.626;2022-11-15T01:53:41;9.10;99.90
10644;DHT22;5370;50.132;8.626;2022-11-15T01:56:13;9.10;99.90
10644;DHT22;5370;50.132;8.626;2022-11-15T01:58:42;9.20;99.90
10644;DHT22;5370;50.132;8.626;2022-11-15T02:01:08;9.20;99.90
10644;DHT22;5370;50.132;8.626;2022-11-15T02:03:59;9.30;99.90
10644;DHT22;5370;50.132;8.626;2022-11-15T02:06:24;9.30;99.90
10644;DHT22;5370;50.132;8.626;2022-11-15T02:08:50;9.40;99.90
10644;DHT22;5370;50.132;8.626;2022-11-15T02:11:16;9.50;99.90
10644;DHT22;5370;50.132;8.626;2022-11-15T02:13:42;9.50;99.90
10644;DHT22;5370;50.132;8.626;2022-11-15T02:16:43;9.60;99.90
10644;DHT22;5370;50.132;8.626;2022-11-15T02:19:36;9.70;99.90
10644;DHT22;5370;50.132;8.626;2022-11-15T02:24:59;9.80;99.90
10644;DHT22;5370;50.132;8.626;2022-11-15T02:30:28;9.90;99.90
10644;DHT22;5370;50.132;8.626;2022-11-15T02:33:12;9.90;99.90
10644;DHT22;5370;50.132;8.626;2022-11-15T02:35:59;10.00;99.90
10644;DHT22;5370;50.132;8.626;2022-11-15T02:41:29;10.10;99.90
10644;DHT22;5370;50.132;8.626;2022-11-15T02:44:26;10.10;99.90
10644;DHT22;5370;50.132;8.626;2022-11-15T02:46:58;10.20;99.90
10644;DHT22;5370;50.132;8.626;2022-11-15T02:49:53;10.30;99.90
10644;DHT22;5370;50.132;8.626;2022-11-15T02:52:22;10.30;99.90
10644;DHT22;5370;50.132;8.626;2022-11-15T02:54:55;10.30;99.90
10644;DHT22;5370;50.132;8.626;2022-11-15T03:00:11;10.30;99.90
10644;DHT22;5370;50.132;8.626;2022-11-15T03:02:51;10.30;99.90
10644;DHT22;5370;50.132;8.626;2022-11-15T03:08:18;10.20;99.70
10644;DHT22;5370;50.132;8.626;2022-11-15T03:13:26;10.10;99.30
10644;DHT22;5370;50.132;8.626;2022-11-15T03:16:19;10.00;99.20
10644;DHT22;5370;50.132;8.626;2022-11-15T03:18:52;9.90;99.60
10644;DHT22;5370;50.132;8.626;2022-11-15T03:21:19;9.80;99.80
10644;DHT22;5370;50.132;8.626;2022-11-15T03:23:47;9.70;99.60
10644;DHT22;5370;50.132;8.626;2022-11-15T03:26:14;9.60;99.70
10644;DHT22;5370;50.132;8.626;2022-11-15T03:28:52;9.60;99.90
10644;DHT22;5370;50.132;8.626;2022-11-15T03:31:19;9.50;99.90
10644;DHT22;5370;50.132;8.626;2022-11-15T03:34:07;9.50;99.90
10644;DHT22;5370;50.132;8.626;2022-11-15T03:36:35;9.50;99.90
10644;DHT22;5370;50.132;8.626;2022-11-15T03:39:05;9.40;99.90
10644;DHT22;5370;50.132;8.626;2022-11-15T03:41:40;9.40;99.90
10644;DHT22;5370;50.132;8.626;2022-11-15T03:44:38;9.40;99.90
10644;DHT22;5370;50.132;8.626;2022-11-15T03:49:45;9.40;99.90
10644;DHT22;5370;50.132;8.626;2022-11-15T03:52:11;9.50;99.90
10644;DHT22;5370;50.132;8.626;2022-11-15T03:54:54;9.50;99.90
10644;DHT22;5370;50.132;8.626;2022-11-15T03:57:20;9.60;99.90
10644;DHT22;5370;50.132;8.626;2022-11-15T03:59:45;9.60;99.90
10644;DHT22;5370;50.132;8.626;2022-11-15T04:02:12;9.70;99.90
10644;DHT22;5370;50.132;8.626;2022-11-15T04:04:38;9.70;99.90
10644;DHT22;5370;50.132;8.626;2022-11-15T04:07:04;9.80;99.90
10644;DHT22;5370;50.132;8.626;2022-11-15T04:09:29;9.80;99.90
10644;DHT22;5370;50.132;8.626;2022-11-15T04:11:55;9.90;99.90
10644;DHT22;5370;50.132;8.626;2022-11-15T04:14:20;10.00;99.90
10644;DHT22;5370;50.132;8.626;2022-11-15T04:16:46;9.90;99.90
10644;DHT22;5370;50.132;8.626;2022-11-15T04:19:11;10.00;99.90
10644;DHT22;5370;50.132;8.626;2022-11-15T04:21:55;10.00;99.90
10644;DHT22;5370;50.132;8.626;2022-11-15T04:24:39;10.10;99.90
10644;DHT22;5370;50.132;8.626;2022-11-15T04:27:05;10.10;99.90
10644;DHT22;5370;50.132;8.626;2022-11-15T04:29:30;10.10;99.90
10644;DHT22;5370;50.132;8.626;2022-11-15T04:32:03;10.10;99.90
10644;DHT22;5370;50.132;8.626;2022-11-15T04:34:29;10.10;99.90
10644;DHT22;5370;50.132;8.626;2022-11-15T04:36:55;10.10;99.90
10644;DHT22;5370;50.132;8.626;2022-11-15T04:39:42;10.10;99.90
10644;DHT22;5370;50.132;8.626;2022-11-15T04:42:08;10.20;99.90
10644;DHT22;5370;50.132;8.626;2022-11-15T04:44:34;10.20;99.90
10644;DHT22;5370;50.132;8.626;2022-11-15T04:47:00;10.20;99.90
10644;DHT22;5370;50.132;8.626;2022-11-15T04:49:26;10.20;99.90
10644;DHT22;5370;50.132;8.626;2022-11-15T04:51:52;10.30;99.90
10644;DHT22;5370;50.132;8.626;2022-11-15T04:54:17;10.30;99.90
10644;DHT22;5370;50.132;8.626;2022-11-15T04:56:43;10.30;99.90
10644;DHT22;5370;50.132;8.626;2022-11-15T04:59:08;10.40;99.90
10644;DHT22;5370;50.132;8.626;2022-11-15T05:01:34;10.40;99.90
10644;DHT22;5370;50.132;8.626;2022-11-15T05:03:59;10.40;99.90
10644;DHT22;5370;50.132;8.626;2022-11-15T05:06:44;10.40;99.90
10644;DHT22;5370;50.132;8.626;2022-11-15T05:09:09;10.50;99.90
10644;DHT22;5370;50.132;8.626;2022-11-15T05:11:35;10.40;99.90
10644;DHT22;5370;50.132;8.626;2022-11-15T05:14:01;10.40;99.90
10644;DHT22;5370;50.132;8.626;2022-11-15T05:16:26;10.40;99.90
10644;DHT22;5370;50.132;8.626;2022-11-15T05:18:53;10.40;99.90
10644;DHT22;5370;50.132;8.626;2022-11-15T05:21:19;10.40;99.90
10644;DHT22;5370;50.132;8.626;2022-11-15T05:23:45;10.40;99.90
10644;DHT22;5370;50.132;8.626;2022-11-15T05:26:10;10.50;99.90
10644;DHT22;5370;50.132;8.626;2022-11-15T05:28:37;10.50;99.90
10644;DHT22;5370;50.132;8.626;2022-11-15T05:31:03;10.50;99.90
10644;DHT22;5370;50.132;8.626;2022-11-15T05:33:30;10.60;99.90
10644;DHT22;5370;50.132;8.626;2022-11-15T05:38:39;10.70;99.90
10644;DHT22;5370;50.132;8.626;2022-11-15T05:41:06;10.70;99.90
10644;DHT22;5370;50.132;8.626;2022-11-15T05:43:34;10.70;99.90
10644;DHT22;5370;50.132;8.626;2022-11-15T05:46:01;10.70;99.90
10644;DHT22;5370;50.132;8.626;2022-11-15T05:48:27;10.70;99.90
10644;DHT22;5370;50.132;8.626;2022-11-15T05:50:53;10.80;99.90
10644;DHT22;5370;50.132;8.626;2022-11-15T05:53:21;10.80;99.90
10644;DHT22;5370;50.132;8.626;2022-11-15T05:55:48;10.80;99.90
10644;DHT22;5370;50.132;8.626;2022-11-15T05:58:14;10.80;99.70
10644;DHT22;5370;50.132;8.626;2022-11-15T06:00:40;10.70;99.70
10644;DHT22;5370;50.132;8.626;2022-11-15T06:03:05;10.70;99.70
10644;DHT22;5370;50.132;8.626;2022-11-15T06:05:31;10.70;99.90
10644;DHT22;5370;50.132;8.626;2022-11-15T06:07:59;10.70;99.90
10644;DHT22;5370;50.132;8.626;2022-11-15T06:10:25;10.80;99.90
10644;DHT22;5370;50.132;8.626;2022-11-15T06:12:58;10.80;99.90
10644;DHT22;5370;50.132;8.626;2022-11-15T06:15:24;10.80;99.90
10644;DHT22;5370;50.132;8.626;2022-11-15T06:17:49;10.80;99.90
10644;DHT22;5370;50.132;8.626;2022-11-15T06:20:15;10.80;99.90
10644;DHT22;5370;50.132;8.626;2022-11-15T06:22:40;10.90;99.90
10644;DHT22;5370;50.132;8.626;2022-11-15T06:25:06;10.90;99.90
10644;DHT22;5370;50.132;8.626;2022-11-15T06:27:32;10.90;99.90
10644;DHT22;5370;50.132;8.626;2022-11-15T06:29:57;10.90;99.90
10644;DHT22;5370;50.132;8.626;2022-11-15T06:32:23;10.90;99.90
10644;DHT22;5370;50.132;8.626;2022-11-15T06:34:48;10.90;99.90
10644;DHT22;5370;50.132;8.626;2022-11-15T06:37:14;11.00;99.80
10644;DHT22;5370;50.132;8.626;2022-11-15T06:39:39;11.00;99.80
10644;DHT22;5370;50.132;8.626;2022-11-15T06:42:05;11.00;99.90
10644;DHT22;5370;50.132;8.626;2022-11-15T06:44:30;11.00;99.80
10644;DHT22;5370;50.132;8.626;2022-11-15T06:46:56;11.00;99.70
10644;DHT22;5370;50.132;8.626;2022-11-15T06:49:21;11.00;99.70
10644;DHT22;5370;50.132;8.626;2022-11-15T06:51:47;11.00;99.70
10644;DHT22;5370;50.132;8.626;2022-11-15T06:54:12;11.00;99.60
10644;DHT22;5370;50.132;8.626;2022-11-15T06:56:38;11.00;99.70
10644;DHT22;5370;50.132;8.626;2022-11-15T06:59:03;11.10;99.70
10644;DHT22;5370;50.132;8.626;2022-11-15T07:01:29;11.10;99.60
10644;DHT22;5370;50.132;8.626;2022-11-15T07:03:54;11.10;99.50
10644;DHT22;5370;50.132;8.626;2022-11-15T07:06:20;11.10;99.60
10644;DHT22;5370;50.132;8.626;2022-11-15T07:08:45;11.10;99.20
10644;DHT22;5370;50.132;8.626;2022-11-15T07:11:11;11.10;99.20
10644;DHT22;5370;50.132;8.626;2022-11-15T07:13:36;11.10;99.20
10644;DHT22;5370;50.132;8.626;2022-11-15T07:16:06;11.20;99.30
10644;DHT22;5370;50.132;8.626;2022-11-15T07:18:40;11.20;99.20
10644;DHT22;5370;50.132;8.626;2022-11-15T07:21:07;11.20;99.20
10644;DHT22;5370;50.132;8.626;2022-11-15T07:23:36;11.20;99.20
10644;DHT22;5370;50.132;8.626;2022-11-15T07:26:02;11.30;99.30
10644;DHT22;5370;50.132;8.626;2022-11-15T07:28:28;11.40;99.80
10644;DHT22;5370;50.132;8.626;2022-11-15T07:30:54;11.50;99.70
10644;DHT22;5370;50.132;8.626;2022-11-15T07:33:19;11.70;99.70
10644;DHT22;5370;50.132;8.626;2022-11-15T07:35:45;11.80;99.50
10644;DHT22;5370;50.132;8.626;2022-11-15T07:38:13;12.00;99.40
10644;DHT22;5370;50.132;8.626;2022-11-15T07:40:40;12.10;99.10
10644;DHT22;5370;50.132;8.626;2022-11-15T07:43:07;12.20;98.70
10644;DHT22;5370;50.132;8.626;2022-11-15T07:45:33;12.30;98.40
10644;DHT22;5370;50.132;8.626;2022-11-15T07:48:00;12.40;98.00
10644;DHT22;5370;50.132;8.626;2022-11-15T07:50:26;12.50;97.90
10644;DHT22;5370;50.132;8.626;2022-11-15T07:52:58;12.50;97.50
10644;DHT22;5370;50.132;8.626;2022-11-15T07:55:25;12.60;97.30
10644;DHT22;5370;50.132;8.626;2022-11-15T07:57:51;12.70;97.00
10644;DHT22;5370;50.132;8.626;2022-11-15T08:00:17;12.70;96.70
10644;DHT22;5370;50.132;8.626;2022-11-15T08:02:43;12.70;96.50
10644;DHT22;5370;50.132;8.626;2022-11-15T08:05:09;12.70;96.20
10644;DHT22;5370;50.132;8.626;2022-11-15T08:07:34;12.80;96.00
10644;DHT22;5370;50.132;8.626;2022-11-15T08:10:00;12.80;95.90
10644;DHT22;5370;50.132;8.626;2022-11-15T08:12:27;12.90;95.90
10644;DHT22;5370;50.132;8.626;2022-11-15T08:14:54;13.00;95.80
10644;DHT22;5370;50.132;8.626;2022-11-15T08:17:21;13.10;95.60
10644;DHT22;5370;50.132;8.626;2022-11-15T08:19:46;13.30;95.50
10644;DHT22;5370;50.132;8.626;2022-11-15T08:22:12;13.40;95.00
10644;DHT22;5370;50.132;8.626;2022-11-15T08:24:38;13.50;94.60
10644;DHT22;5370;50.132;8.626;2022-11-15T08:27:04;13.50;94.20
10644;DHT22;5370;50.132;8.626;2022-11-15T08:29:29;13.60;93.90
10644;DHT22;5370;50.132;8.626;2022-11-15T08:31:55;13.60;93.60
10644;DHT22;5370;50.132;8.626;2022-11-15T08:34:21;13.60;93.30
10644;DHT22;5370;50.132;8.626;2022-11-15T08:36:47;13.50;92.80
10644;DHT22;5370;50.132;8.626;2022-11-15T08:39:13;13.50;92.70
10644;DHT22;5370;50.132;8.626;2022-11-15T08:41:38;13.50;92.50
10644;DHT22;5370;50.132;8.626;2022-11-15T08:44:04;13.40;92.40
10644;DHT22;5370;50.132;8.626;2022-11-15T08:46:30;13.40;92.50
10644;DHT22;5370;50.132;8.626;2022-11-15T08:48:55;13.40;92.50
10644;DHT22;5370;50.132;8.626;2022-11-15T08:51:21;13.40;92.30
10644;DHT22;5370;50.132;8.626;2022-11-15T08:53:46;13.50;92.20
10644;DHT22;5370;50.132;8.626;2022-11-15T08:56:14;13.50;92.20
10644;DHT22;5370;50.132;8.626;2022-11-15T08:58:40;13.60;92.10
10644;DHT22;5370;50.132;8.626;2022-11-15T09:01:06;13.60;92.00
10644;DHT22;5370;50.132;8.626;2022-11-15T09:03:40;13.60;91.90
10644;DHT22;5370;50.132;8.626;2022-11-15T09:06:05;13.70;91.90
10644;DHT22;5370;50.132;8.626;2022-11-15T09:08:31;13.70;91.70
10644;DHT22;5370;50.132;8.626;2022-11-15T09:10:56;13.70;91.70
10644;DHT22;5370;50.132;8.626;2022-11-15T09:13:22;13.80;91.70
10644;DHT22;5370;50.132;8.626;2022-11-15T09:15:48;13.80;91.90
10644;DHT22;5370;50.132;8.626;2022-11-15T09:18:13;13.80;91.60
10644;DHT22;5370;50.132;8.626;2022-11-15T09:20:39;13.80;91.40
10644;DHT22;5370;50.132;8.626;2022-11-15T09:23:05;13.80;91.40
10644;DHT22;5370;50.132;8.626;2022-11-15T09:25:30;13.80;91.50
10644;DHT22;5370;50.132;8.626;2022-11-15T09:27:56;13.90;91.40
10644;DHT22;5370;50.132;8.626;2022-11-15T09:30:23;13.90;91.30
10644;DHT22;5370;50.132;8.626;2022-11-15T09:32:49;13.90;91.30
10644;DHT22;5370;50.132;8.626;2022-11-15T09:35:14;13.90;91.40
10644;DHT22;5370;50.132;8.626;2022-11-15T09:37:40;14.00;91.40
10644;DHT22;5370;50.132;8.626;2022-11-15T09:40:09;14.10;91.30
10644;DHT22;5370;50.132;8.626;2022-11-15T09:45:34;14.20;91.10
10644;DHT22;5370;50.132;8.626;2022-11-15T09:50:59;14.40;90.90
10644;DHT22;5370;50.132;8.626;2022-11-15T09:53:48;14.50;90.70
10644;DHT22;5370;50.132;8.626;2022-11-15T10:01:20;14.90;90.10
10644;DHT22;5370;50.132;8.626;2022-11-15T10:03:48;15.00;89.50
10644;DHT22;5370;50.132;8.626;2022-11-15T10:06:23;15.10;88.90
10644;DHT22;5370;50.132;8.626;2022-11-15T10:09:16;15.20;88.80
10644;DHT22;5370;50.132;8.626;2022-11-15T10:11:44;15.40;88.60
10644;DHT22;5370;50.132;8.626;2022-11-15T10:14:22;15.60;87.40
10644;DHT22;5370;50.132;8.626;2022-11-15T10:22:45;16.00;82.80
10644;DHT22;5370;50.132;8.626;2022-11-15T10:25:24;16.10;81.90
10644;DHT22;5370;50.132;8.626;2022-11-15T10:28:03;16.10;80.80
10644;DHT22;5370;50.132;8.626;2022-11-15T10:30:35;16.10;80.20
10644;DHT22;5370;50.132;8.626;2022-11-15T10:35:42;16.20;79.30
10644;DHT22;5370;50.132;8.626;2022-11-15T10:38:10;16.30;78.70
10644;DHT22;5370;50.132;8.626;2022-11-15T10:40:37;16.30;78.20
10644;DHT22;5370;50.132;8.626;2022-11-15T10:43:14;16.30;77.60
10644;DHT22;5370;50.132;8.626;2022-11-15T10:45:40;16.30;77.30
10644;DHT22;5370;50.132;8.626;2022-11-15T10:48:25;16.30;77.10
10644;DHT22;5370;50.132;8.626;2022-11-15T10:50:52;16.30;76.80
10644;DHT22;5370;50.132;8.626;2022-11-15T10:53:31;16.30;76.70
10644;DHT22;5370;50.132;8.626;2022-11-15T10:56:02;16.30;76.70
10644;DHT22;5370;50.132;8.626;2022-11-15T11:01:17;16.40;76.40
10644;DHT22;5370;50.132;8.626;2022-11-15T11:03:45;16.40;76.60
10644;DHT22;5370;50.132;8.626;2022-11-15T11:06:16;16.50;76.40
10644;DHT22;5370;50.132;8.626;2022-11-15T11:11:19;16.60;76.40
10644;DHT22;5370;50.132;8.626;2022-11-15T11:13:45;16.50;75.80
10644;DHT22;5370;50.132;8.626;2022-11-15T11:21:59;16.50;75.10
10644;DHT22;5370;50.132;8.626;2022-11-15T11:27:17;16.40;75.10
10644;DHT22;5370;50.132;8.626;2022-11-15T11:29:49;16.40;75.10
10644;DHT22;5370;50.132;8.626;2022-11-15T11:35:02;16.30;75.30
10644;DHT22;5370;50.132;8.626;2022-11-15T11:37:44;16.30;75.10
10644;DHT22;5370;50.132;8.626;2022-11-15T11:40:24;16.40;75.00
10644;DHT22;5370;50.132;8.626;2022-11-15T11:43:17;16.30;74.90
10644;DHT22;5370;50.132;8.626;2022-11-15T11:46:04;16.20;74.90
10644;DHT22;5370;50.132;8.626;2022-11-15T11:48:52;16.20;75.10
10644;DHT22;5370;50.132;8.626;2022-11-15T11:52:07;16.10;75.20
10644;DHT22;5370;50.132;8.626;2022-11-15T11:57:40;16.20;75.40
10644;DHT22;5370;50.132;8.626;2022-11-15T12:00:24;16.20;75.30
10644;DHT22;5370;50.132;8.626;2022-11-15T12:05:44;16.30;75.10
10644;DHT22;5370;50.132;8.626;2022-11-15T12:08:40;16.40;75.10
10644;DHT22;5370;50.132;8.626;2022-11-15T12:11:15;16.40;75.00
10644;DHT22;5370;50.132;8.626;2022-11-15T12:13:43;16.40;74.80
10644;DHT22;5370;50.132;8.626;2022-11-15T12:16:28;16.50;74.70
10644;DHT22;5370;50.132;8.626;2022-11-15T12:18:57;16.60;74.40
10644;DHT22;5370;50.132;8.626;2022-11-15T12:23:58;16.60;74.00
10644;DHT22;5370;50.132;8.626;2022-11-15T12:26:31;16.60;73.80
10644;DHT22;5370;50.132;8.626;2022-11-15T12:29:01;16.60;73.70
10644;DHT22;5370;50.132;8.626;2022-11-15T12:34:02;16.70;73.90
10644;DHT22;5370;50.132;8.626;2022-11-15T12:36:36;16.80;74.00
10644;DHT22;5370;50.132;8.626;2022-11-15T12:39:06;16.80;73.80
10644;DHT22;5370;50.132;8.626;2022-11-15T12:41:37;16.70;73.40
10644;DHT22;5370;50.132;8.626;2022-11-15T12:44:05;16.70;73.40
10644;DHT22;5370;50.132;8.626;2022-11-15T13:04:54;16.30;73.80
10644;DHT22;5370;50.132;8.626;2022-11-15T13:17:46;16.30;75.20
10644;DHT22;5370;50.132;8.626;2022-11-15T13:22:42;16.20;75.80
10644;DHT22;5370;50.132;8.626;2022-11-15T13:28:03;16.30;76.20
10644;DHT22;5370;50.132;8.626;2022-11-15T13:30:35;16.20;76.00
10644;DHT22;5370;50.132;8.626;2022-11-15T13:35:56;16.20;76.60
10644;DHT22;5370;50.132;8.626;2022-11-15T13:38:32;16.30;76.90
10644;DHT22;5370;50.132;8.626;2022-11-15T13:40:59;16.30;76.80
10644;DHT22;5370;50.132;8.626;2022-11-15T13:43:26;16.30;76.70
10644;DHT22;5370;50.132;8.626;2022-11-15T13:48:41;16.30;77.00
10644;DHT22;5370;50.132;8.626;2022-11-15T13:53:41;16.20;77.30
10644;DHT22;5370;50.132;8.626;2022-11-15T13:56:07;16.20;77.50
10644;DHT22;5370;50.132;8.626;2022-11-15T13:58:33;16.20;77.60
10644;DHT22;5370;50.132;8.626;2022-11-15T14:01:04;16.10;77.70
10644;DHT22;5370;50.132;8.626;2022-11-15T14:03:41;16.10;77.90
10644;DHT22;5370;50.132;8.626;2022-11-15T14:06:14;16.10;78.10
10644;DHT22;5370;50.132;8.626;2022-11-15T14:08:58;16.00;78.20
10644;DHT22;5370;50.132;8.626;2022-11-15T14:11:24;16.00;79.10
10644;DHT22;5370;50.132;8.626;2022-11-15T14:16:44;16.00;78.50
10644;DHT22;5370;50.132;8.626;2022-11-15T14:22:25;16.00;78.20
10644;DHT22;5370;50.132;8.626;2022-11-15T14:25:05;16.00;77.90
10644;DHT22;5370;50.132;8.626;2022-11-15T14:27:32;16.00;77.60
10644;DHT22;5370;50.132;8.626;2022-11-15T14:29:58;15.90;77.30
10644;DHT22;5370;50.132;8.626;2022-11-15T14:32:26;15.90;77.30
10644;DHT22;5370;50.132;8.626;2022-11-15T14:34:57;15.90;77.30
10644;DHT22;5370;50.132;8.626;2022-11-15T14:37:30;15.80;77.20
10644;DHT22;5370;50.132;8.626;2022-11-15T14:40:04;15.80;77.20
10644;DHT22;5370;50.132;8.626;2022-11-15T14:42:30;15.80;77.20
10644;DHT22;5370;50.132;8.626;2022-11-15T14:44:56;15.70;77.00
10644;DHT22;5370;50.132;8.626;2022-11-15T14:47:22;15.70;77.10
10644;DHT22;5370;50.132;8.626;2022-11-15T14:49:47;15.60;77.00
10644;DHT22;5370;50.132;8.626;2022-11-15T14:52:25;15.60;77.30
10644;DHT22;5370;50.132;8.626;2022-11-15T14:54:51;15.60;77.30
10644;DHT22;5370;50.132;8.626;2022-11-15T14:57:17;15.50;77.20
10644;DHT22;5370;50.132;8.626;2022-11-15T14:59:42;15.50;77.50
10644;DHT22;5370;50.132;8.626;2022-11-15T15:02:19;15.50;78.10
10644;DHT22;5370;50.132;8.626;2022-11-15T15:04:45;15.50;78.10
10644;DHT22;5370;50.132;8.626;2022-11-15T15:07:11;15.50;78.60
10644;DHT22;5370;50.132;8.626;2022-11-15T15:09:37;15.50;78.70
10644;DHT22;5370;50.132;8.626;2022-11-15T15:12:03;15.40;78.70
10644;DHT22;5370;50.132;8.626;2022-11-15T15:14:29;15.40;78.60
10644;DHT22;5370;50.132;8.626;2022-11-15T15:16:54;15.30;78.70
10644;DHT22;5370;50.132;8.626;2022-11-15T15:19:20;15.30;78.90
10644;DHT22;5370;50.132;8.626;2022-11-15T15:21:45;15.20;79.20
10644;DHT22;5370;50.132;8.626;2022-11-15T15:24:14;15.10;79.20
10644;DHT22;5370;50.132;8.626;2022-11-15T15:26:40;15.00;79.40
10644;DHT22;5370;50.132;8.626;2022-11-15T15:29:06;15.00;80.00
10644;DHT22;5370;50.132;8.626;2022-11-15T15:31:34;14.90;80.40
10644;DHT22;5370;50.132;8.626;2022-11-15T15:34:00;14.80;80.70
10644;DHT22;5370;50.132;8.626;2022-11-15T15:36:25;14.80;81.20
10644;DHT22;5370;50.132;8.626;2022-11-15T15:38:51;14.70;81.50
10644;DHT22;5370;50.132;8.626;2022-11-15T15:41:17;14.60;81.90
10644;DHT22;5370;50.132;8.626;2022-11-15T15:43:43;14.50;82.40
10644;DHT22;5370;50.132;8.626;2022-11-15T15:46:15;14.40;82.90
10644;DHT22;5370;50.132;8.626;2022-11-15T15:48:41;14.30;83.50
10644;DHT22;5370;50.132;8.626;2022-11-15T15:51:07;14.20;83.90
10644;DHT22;5370;50.132;8.626;2022-11-15T15:53:33;14.00;84.30
10644;DHT22;5370;50.132;8.626;2022-11-15T15:55:59;13.90;84.90
10644;DHT22;5370;50.132;8.626;2022-11-15T15:58:24;13.80;85.50
10644;DHT22;5370;50.132;8.626;2022-11-15T16:00:50;13.70;85.90
10644;DHT22;5370;50.132;8.626;2022-11-15T16:03:15;13.70;86.60
10644;DHT22;5370;50.132;8.626;2022-11-15T16:05:41;13.60;87.20
10644;DHT22;5370;50.132;8.626;2022-11-15T16:08:20;13.60;87.70
10644;DHT22;5370;50.132;8.626;2022-11-15T16:10:46;13.60;88.30
10644;DHT22;5370;50.132;8.626;2022-11-15T16:13:12;13.50;88.60
10644;DHT22;5370;50.132;8.626;2022-11-15T16:15:38;13.50;89.30
10644;DHT22;5370;50.132;8.626;2022-11-15T16:18:04;13.50;89.90
10644;DHT22;5370;50.132;8.626;2022-11-15T16:20:41;13.50;90.10
10644;DHT22;5370;50.132;8.626;2022-11-15T16:23:17;13.50;90.30
10644;DHT22;5370;50.132;8.626;2022-11-15T16:25:47;13.50;90.50
10644;DHT22;5370;50.132;8.626;2022-11-15T16:28:27;13.50;90.80
10644;DHT22;5370;50.132;8.626;2022-11-15T16:31:11;13.50;91.00
10644;DHT22;5370;50.132;8.626;2022-11-15T16:33:38;13.50;91.10
10644;DHT22;5370;50.132;8.626;2022-11-15T16:36:05;13.50;91.20
10644;DHT22;5370;50.132;8.626;2022-11-15T16:38:31;13.50;91.30
10644;DHT22;5370;50.132;8.626;2022-11-15T16:40:57;13.50;91.40
10644;DHT22;5370;50.132;8.626;2022-11-15T16:43:23;13.50;91.60
10644;DHT22;5370;50.132;8.626;2022-11-15T16:45:49;13.50;91.70
10644;DHT22;5370;50.132;8.626;2022-11-15T16:48:23;13.50;91.80
10644;DHT22;5370;50.132;8.626;2022-11-15T16:50:50;13.50;92.10
10644;DHT22;5370;50.132;8.626;2022-11-15T16:53:16;13.40;92.30
10644;DHT22;5370;50.132;8.626;2022-11-15T16:55:41;13.40;92.50
10644;DHT22;5370;50.132;8.626;2022-11-15T16:58:08;13.40;92.80
10644;DHT22;5370;50.132;8.626;2022-11-15T17:00:34;13.40;93.10
10644;DHT22;5370;50.132;8.626;2022-11-15T17:02:59;13.40;93.30
10644;DHT22;5370;50.132;8.626;2022-11-15T17:05:25;13.40;93.40
10644;DHT22;5370;50.132;8.626;2022-11-15T17:07:53;13.40;93.40
10644;DHT22;5370;50.132;8.626;2022-11-15T17:10:20;13.40;93.40
10644;DHT22;5370;50.132;8.626;2022-11-15T17:12:46;13.30;93.40
10644;DHT22;5370;50.132;8.626;2022-11-15T17:15:12;13.30;93.50
10644;DHT22;5370;50.132;8.626;2022-11-15T17:17:38;13.20;93.60
10644;DHT22;5370;50.132;8.626;2022-11-15T17:20:05;13.20;93.70
10644;DHT22;5370;50.132;8.626;2022-11-15T17:22:37;13.20;93.90
10644;DHT22;5370;50.132;8.626;2022-11-15T17:25:03;13.10;94.00
10644;DHT22;5370;50.132;8.626;2022-11-15T17:27:29;13.10;94.20
10644;DHT22;5370;50.132;8.626;2022-11-15T17:29:55;13.10;94.40
10644;DHT22;5370;50.132;8.626;2022-11-15T17:32:21;13.10;94.50
10644;DHT22;5370;50.132;8.626;2022-11-15T17:34:46;13.00;94.70
10644;DHT22;5370;50.132;8.626;2022-11-15T17:37:12;13.00;94.80
10644;DHT22;5370;50.132;8.626;2022-11-15T17:39:37;13.00;94.90
10644;DHT22;5370;50.132;8.626;2022-11-15T17:42:03;13.00;95.00
10644;DHT22;5370;50.132;8.626;2022-11-15T17:44:28;13.00;95.10
10644;DHT22;5370;50.132;8.626;2022-11-15T17:46:54;12.90;95.20
10644;DHT22;5370;50.132;8.626;2022-11-15T17:49:19;12.90;95.40
10644;DHT22;5370;50.132;8.626;2022-11-15T17:51:45;12.90;95.50
10644;DHT22;5370;50.132;8.626;2022-11-15T17:54:11;12.90;95.70
10644;DHT22;5370;50.132;8.626;2022-11-15T17:56:38;12.90;95.80
10644;DHT22;5370;50.132;8.626;2022-11-15T17:59:05;12.90;95.90